Time,TemperatureF,DewpointF,PressureIn,WindDirection,WindDirectionDegrees,WindSpeedMPH,WindSpeedGustMPH,Humidity,HourlyPrecipIn,Conditions,Clouds,dailyrainin,SoftwareType,DateUTC
2013-02-21 00:02:00,39.0,16.0,30.22,SE,142,3.0,5.0,39,0.00,,,0.00,,2013-02-21 05:02:00,
2013-02-21 00:12:00,39.0,16.0,30.22,SE,142,3.0,5.0,39,0.00,,,0.00,,2013-02-21 05:12:00,
2013-02-21 00:22:00,38.0,17.0,30.22,SW,232,2.0,4.0,42,0.00,,,0.00,,2013-02-21 05:22:00,
2013-02-21 00:35:00,38.0,16.0,30.22,WNW,301,2.0,3.0,40,0.00,,,0.00,,2013-02-21 05:35:00,
2013-02-21 00:44:00,38.0,16.0,30.22,WNW,301,2.0,3.0,40,0.00,,,0.00,,2013-02-21 05:44:00,
2013-02-21 00:53:00,37.0,14.0,30.23,WNW,297,1.0,3.0,39,0.00,,,0.00,,2013-02-21 05:53:00,
2013-02-21 01:01:00,39.0,14.0,30.23,NW,316,7.0,9.0,35,0.00,,,0.00,,2013-02-21 06:01:00,
2013-02-21 01:11:00,39.0,17.0,30.22,SSE,165,0.0,1.0,40,0.00,,,0.00,,2013-02-21 06:11:00,
2013-02-21 01:21:00,39.0,17.0,30.22,SSE,165,0.0,1.0,40,0.00,,,0.00,,2013-02-21 06:21:00,
2013-02-21 01:31:00,36.0,16.0,30.22,West,281,3.0,5.0,43,0.00,,,0.00,,2013-02-21 06:31:00,
2013-02-21 01:41:00,36.0,17.0,30.23,West,260,0.0,0.0,46,0.00,,,0.00,,2013-02-21 06:41:00,
2013-02-21 01:51:00,36.0,17.0,30.23,West,260,0.0,0.0,46,0.00,,,0.00,,2013-02-21 06:51:00,
2013-02-21 02:01:00,36.0,18.0,30.23,WSW,245,1.0,2.0,47,0.00,,,0.00,,2013-02-21 07:01:00,
2013-02-21 02:11:00,36.0,16.0,30.24,SW,215,0.0,0.0,44,0.00,,,0.00,,2013-02-21 07:11:00,
2013-02-21 02:21:00,36.0,16.0,30.24,SW,215,0.0,0.0,44,0.00,,,0.00,,2013-02-21 07:21:00,
2013-02-21 02:32:00,36.0,16.0,30.24,West,281,0.0,0.0,43,0.00,,,0.00,,2013-02-21 07:32:00,
2013-02-21 02:42:00,37.0,18.0,30.24,NW,326,0.0,0.0,45,0.00,,,0.00,,2013-02-21 07:42:00,
2013-02-21 02:52:00,37.0,18.0,30.24,NW,326,0.0,0.0,45,0.00,,,0.00,,2013-02-21 07:52:00,
2013-02-21 03:01:00,36.0,18.0,30.24,WNW,293,0.0,0.0,48,0.00,,,0.00,,2013-02-21 08:01:00,
2013-02-21 03:11:00,35.0,16.0,30.25,WNW,293,0.0,0.0,45,0.00,,,0.00,,2013-02-21 08:11:00,
2013-02-21 03:21:00,35.0,16.0,30.25,WNW,293,0.0,0.0,45,0.00,,,0.00,,2013-02-21 08:21:00,
2013-02-21 03:32:00,35.0,18.0,30.24,WNW,293,0.0,0.0,49,0.00,,,0.00,,2013-02-21 08:32:00,
2013-02-21 03:42:00,35.0,18.0,30.24,WNW,293,0.0,0.0,49,0.00,,,0.00,,2013-02-21 08:42:00,
2013-02-21 03:52:00,33.0,18.0,30.24,ENE,70,0.0,0.0,53,0.00,,,0.00,,2013-02-21 08:52:00,
2013-02-21 04:01:00,32.0,17.0,30.24,ENE,70,0.0,0.0,53,0.00,,,0.00,,2013-02-21 09:01:00,
2013-02-21 04:11:00,32.0,17.0,30.24,ENE,70,0.0,0.0,53,0.00,,,0.00,,2013-02-21 09:11:00,
2013-02-21 04:22:00,32.0,17.0,30.24,ENE,70,0.0,0.0,53,0.00,,,0.00,,2013-02-21 09:22:00,
2013-02-21 04:32:00,32.0,17.0,30.24,ENE,70,0.0,0.0,54,0.00,,,0.00,,2013-02-21 09:32:00,
2013-02-21 04:41:00,31.0,17.0,30.25,ENE,70,0.0,0.0,55,0.00,,,0.00,,2013-02-21 09:41:00,
2013-02-21 04:51:00,31.0,17.0,30.25,ENE,70,0.0,0.0,55,0.00,,,0.00,,2013-02-21 09:51:00,
2013-02-21 05:01:00,31.0,17.0,30.25,NNW,328,0.0,3.0,55,0.00,,,0.00,,2013-02-21 10:01:00,
2013-02-21 05:11:00,31.0,17.0,30.25,NNW,328,0.0,3.0,55,0.00,,,0.00,,2013-02-21 10:11:00,
2013-02-21 05:21:00,32.0,19.0,30.26,North,4,0.0,0.0,58,0.00,,,0.00,,2013-02-21 10:21:00,
2013-02-21 05:31:00,31.0,18.0,30.26,North,4,0.0,0.0,58,0.00,,,0.00,,2013-02-21 10:31:00,
2013-02-21 05:41:00,31.0,18.0,30.26,North,4,0.0,0.0,58,0.00,,,0.00,,2013-02-21 10:41:00,
2013-02-21 05:51:00,30.0,17.0,30.27,NNE,23,0.0,0.0,58,0.00,,,0.00,,2013-02-21 10:51:00,
2013-02-21 06:01:00,30.0,18.0,30.27,NNE,23,0.0,0.0,61,0.00,,,0.00,,2013-02-21 11:01:00,
2013-02-21 06:11:00,30.0,18.0,30.27,NNE,23,0.0,0.0,61,0.00,,,0.00,,2013-02-21 11:11:00,
2013-02-21 06:21:00,30.0,17.0,30.27,NNE,23,0.0,0.0,58,0.00,,,0.00,,2013-02-21 11:21:00,
2013-02-21 06:31:00,30.0,18.0,30.27,NNE,23,0.0,0.0,60,0.00,,,0.00,,2013-02-21 11:31:00,
2013-02-21 06:41:00,30.0,18.0,30.27,NNE,23,0.0,0.0,60,0.00,,,0.00,,2013-02-21 11:41:00,
2013-02-21 06:51:00,29.0,19.0,30.27,NNE,23,0.0,0.0,65,0.00,,,0.00,,2013-02-21 11:51:00,
2013-02-21 07:01:00,29.0,19.0,30.28,NNE,23,0.0,0.0,67,0.00,,,0.00,,2013-02-21 12:01:00,
2013-02-21 07:11:00,29.0,18.0,30.29,NNE,23,0.0,0.0,64,0.00,,,0.00,,2013-02-21 12:11:00,
2013-02-21 07:21:00,29.0,18.0,30.29,NNE,23,0.0,0.0,64,0.00,,,0.00,,2013-02-21 12:21:00,
2013-02-21 07:32:00,28.0,18.0,30.29,NNE,23,0.0,0.0,65,0.00,,,0.00,,2013-02-21 12:32:00,
2013-02-21 07:42:00,28.0,19.0,30.29,NNE,23,0.0,0.0,68,0.00,,,0.00,,2013-02-21 12:42:00,
2013-02-21 07:52:00,28.0,19.0,30.29,NNE,23,0.0,0.0,68,0.00,,,0.00,,2013-02-21 12:52:00,
2013-02-21 08:02:00,29.0,19.0,30.30,NNE,23,0.0,0.0,67,0.00,,,0.00,,2013-02-21 13:02:00,
2013-02-21 08:12:00,29.0,19.0,30.30,NNE,23,0.0,0.0,67,0.00,,,0.00,,2013-02-21 13:12:00,
2013-02-21 08:22:00,31.0,22.0,30.31,NNE,23,0.0,0.0,68,0.00,,,0.00,,2013-02-21 13:22:00,
2013-02-21 08:32:00,31.0,21.0,30.31,NNE,23,0.0,0.0,65,0.00,,,0.00,,2013-02-21 13:32:00,
2013-02-21 08:42:00,33.0,22.0,30.31,NNE,23,0.0,0.0,63,0.00,,,0.00,,2013-02-21 13:42:00,
2013-02-21 08:51:00,33.0,22.0,30.31,NNE,23,0.0,0.0,63,0.00,,,0.00,,2013-02-21 13:51:00,
2013-02-21 09:02:00,36.0,21.0,30.32,SSW,198,0.0,0.0,55,0.00,,,0.00,,2013-02-21 14:02:00,
2013-02-21 09:11:00,36.0,21.0,30.32,SSW,198,0.0,0.0,55,0.00,,,0.00,,2013-02-21 14:11:00,
2013-02-21 09:22:00,40.0,21.0,30.31,SE,141,0.0,0.0,47,0.00,,,0.00,,2013-02-21 14:22:00,
2013-02-21 09:32:00,41.0,21.0,30.32,SE,141,0.0,0.0,44,0.00,,,0.00,,2013-02-21 14:32:00,
2013-02-21 09:42:00,43.0,20.0,30.31,East,84,2.0,4.0,40,0.00,,,0.00,,2013-02-21 14:42:00,
2013-02-21 09:52:00,43.0,20.0,30.31,East,84,2.0,4.0,40,0.00,,,0.00,,2013-02-21 14:52:00,
2013-02-21 10:01:00,45.0,22.0,30.31,East,94,0.0,0.0,40,0.00,,,0.00,,2013-02-21 15:01:00,
2013-02-21 10:12:00,45.0,22.0,30.31,East,94,0.0,0.0,40,0.00,,,0.00,,2013-02-21 15:12:00,
2013-02-21 10:21:00,46.0,20.0,30.30,East,94,0.0,0.0,35,0.00,,,0.00,,2013-02-21 15:21:00,
2013-02-21 10:32:00,47.0,20.0,30.30,ENE,65,0.0,1.0,34,0.00,,,0.00,,2013-02-21 15:32:00,
2013-02-21 10:42:00,47.0,20.0,30.30,ENE,65,0.0,1.0,34,0.00,,,0.00,,2013-02-21 15:42:00,
2013-02-21 10:51:00,47.0,20.0,30.30,SSE,160,2.0,4.0,34,0.00,,,0.00,,2013-02-21 15:51:00,
2013-02-21 11:01:00,49.0,20.0,30.29,NW,308,2.0,4.0,32,0.00,,,0.00,,2013-02-21 16:01:00,
2013-02-21 11:12:00,51.0,22.0,30.29,SE,135,1.0,2.0,32,0.00,,,0.00,,2013-02-21 16:12:00,
2013-02-21 11:22:00,51.0,22.0,30.29,SE,135,1.0,2.0,32,0.00,,,0.00,,2013-02-21 16:22:00,
2013-02-21 11:32:00,50.0,22.0,30.29,South,172,3.0,5.0,33,0.00,,,0.00,,2013-02-21 16:32:00,
2013-02-21 11:42:00,52.0,22.0,30.28,ESE,120,1.0,3.0,31,0.00,,,0.00,,2013-02-21 16:42:00,
2013-02-21 11:52:00,52.0,22.0,30.28,ESE,120,1.0,3.0,31,0.00,,,0.00,,2013-02-21 16:52:00,
2013-02-21 12:01:00,52.0,23.0,30.27,SSW,212,3.0,6.0,32,0.00,,,0.00,,2013-02-21 17:01:00,
2013-02-21 12:11:00,54.0,22.0,30.27,South,173,0.0,0.0,29,0.00,,,0.00,,2013-02-21 17:11:00,
2013-02-21 12:21:00,54.0,22.0,30.27,South,173,0.0,0.0,29,0.00,,,0.00,,2013-02-21 17:21:00,
2013-02-21 12:32:00,53.0,23.0,30.26,SE,146,3.0,5.0,31,0.00,,,0.00,,2013-02-21 17:32:00,
2013-02-21 12:42:00,53.0,23.0,30.26,SE,146,3.0,5.0,31,0.00,,,0.00,,2013-02-21 17:42:00,
2013-02-21 12:52:00,54.0,22.0,30.25,SSW,194,4.0,7.0,29,0.00,,,0.00,,2013-02-21 17:52:00,
2013-02-21 13:02:00,57.0,25.0,30.24,WSW,252,1.0,5.0,29,0.00,,,0.00,,2013-02-21 18:02:00,
2013-02-21 13:12:00,57.0,25.0,30.24,WSW,252,1.0,5.0,29,0.00,,,0.00,,2013-02-21 18:12:00,
2013-02-21 13:22:00,57.0,23.0,30.24,West,263,4.0,6.0,27,0.00,,,0.00,,2013-02-21 18:22:00,
2013-02-21 13:32:00,57.0,23.0,30.23,East,83,1.0,4.0,27,0.00,,,0.00,,2013-02-21 18:32:00,
2013-02-21 13:42:00,57.0,23.0,30.23,East,83,1.0,4.0,27,0.00,,,0.00,,2013-02-21 18:42:00,
2013-02-21 13:51:00,57.0,23.0,30.22,SSE,166,6.0,7.0,27,0.00,,,0.00,,2013-02-21 18:51:00,
2013-02-21 14:01:00,57.0,24.0,30.21,West,263,4.0,6.0,28,0.00,,,0.00,,2013-02-21 19:01:00,
2013-02-21 14:12:00,57.0,24.0,30.21,West,263,4.0,6.0,28,0.00,,,0.00,,2013-02-21 19:12:00,
2013-02-21 14:21:00,57.0,23.0,30.20,West,267,1.0,3.0,27,0.00,,,0.00,,2013-02-21 19:21:00,
2013-02-21 14:32:00,58.0,24.0,30.20,East,101,1.0,3.0,27,0.00,,,0.00,,2013-02-21 19:32:00,
2013-02-21 14:42:00,58.0,24.0,30.20,East,101,1.0,3.0,27,0.00,,,0.00,,2013-02-21 19:42:00,
2013-02-21 14:52:00,59.0,24.0,30.19,SSW,208,0.0,0.0,26,0.00,,,0.00,,2013-02-21 19:52:00,
2013-02-21 15:01:00,59.0,23.0,30.20,West,280,5.0,9.0,25,0.00,,,0.00,,2013-02-21 20:01:00,
2013-02-21 15:11:00,60.0,24.0,30.21,SSE,158,0.0,0.0,25,0.00,,,0.00,,2013-02-21 20:11:00,
2013-02-21 15:21:00,60.0,24.0,30.21,SSE,158,0.0,0.0,25,0.00,,,0.00,,2013-02-21 20:21:00,
2013-02-21 15:32:00,59.0,22.0,30.22,West,259,1.0,4.0,24,0.00,,,0.00,,2013-02-21 20:32:00,
2013-02-21 15:42:00,59.0,22.0,30.22,West,259,1.0,4.0,24,0.00,,,0.00,,2013-02-21 20:42:00,
2013-02-21 15:52:00,59.0,23.0,30.21,SSW,208,2.0,3.0,25,0.00,,,0.00,,2013-02-21 20:52:00,
2013-02-21 16:02:00,58.0,21.0,30.20,SE,124,6.0,8.0,24,0.00,,,0.00,,2013-02-21 21:02:00,
2013-02-21 16:12:00,58.0,22.0,30.20,ESE,103,3.0,5.0,25,0.00,,,0.00,,2013-02-21 21:12:00,
2013-02-21 16:21:00,58.0,22.0,30.20,ESE,103,3.0,5.0,25,0.00,,,0.00,,2013-02-21 21:21:00,
2013-02-21 16:32:00,57.0,22.0,30.20,SW,224,4.0,6.0,26,0.00,,,0.00,,2013-02-21 21:32:00,
2013-02-21 16:42:00,57.0,22.0,30.21,South,188,3.0,5.0,26,0.00,,,0.00,,2013-02-21 21:42:00,
2013-02-21 16:52:00,57.0,22.0,30.21,South,188,3.0,5.0,26,0.00,,,0.00,,2013-02-21 21:52:00,
2013-02-21 17:01:00,57.0,23.0,30.21,SSW,200,1.0,2.0,27,0.00,,,0.00,,2013-02-21 22:01:00,
2013-02-21 17:11:00,57.0,23.0,30.21,SSW,200,1.0,2.0,27,0.00,,,0.00,,2013-02-21 22:11:00,
2013-02-21 17:21:00,57.0,23.0,30.21,SSE,160,4.0,5.0,27,0.00,,,0.00,,2013-02-21 22:21:00,
2013-02-21 17:32:00,57.0,23.0,30.21,WSW,242,0.0,0.0,27,0.00,,,0.00,,2013-02-21 22:32:00,
2013-02-21 17:42:00,57.0,25.0,30.20,SSW,193,0.0,0.0,29,0.00,,,0.00,,2013-02-21 22:42:00,
2013-02-21 17:52:00,57.0,25.0,30.20,SSW,193,0.0,0.0,29,0.00,,,0.00,,2013-02-21 22:52:00,
2013-02-21 18:01:00,56.0,24.0,30.21,SSW,193,0.0,0.0,29,0.00,,,0.00,,2013-02-21 23:01:00,
2013-02-21 18:11:00,56.0,24.0,30.21,SSW,193,0.0,0.0,29,0.00,,,0.00,,2013-02-21 23:11:00,
2013-02-21 18:21:00,56.0,26.0,30.22,SSW,193,0.0,0.0,31,0.00,,,0.00,,2013-02-21 23:21:00,
2013-02-21 18:32:00,55.0,26.0,30.22,SSW,193,0.0,0.0,33,0.00,,,0.00,,2013-02-21 23:32:00,
2013-02-21 18:52:00,54.0,28.0,30.21,SSW,193,0.0,0.0,37,0.00,,,0.00,,2013-02-21 23:52:00,
2013-02-21 19:01:00,53.0,29.0,30.21,SSW,193,0.0,0.0,39,0.00,,,0.00,,2013-02-22 00:01:00,
2013-02-21 19:21:00,52.0,29.0,30.22,SSW,193,0.0,0.0,41,0.00,,,0.00,,2013-02-22 00:21:00,
2013-02-21 19:32:00,52.0,30.0,30.23,SSW,193,0.0,0.0,42,0.00,,,0.00,,2013-02-22 00:32:00,
2013-02-21 19:42:00,52.0,30.0,30.23,SSW,193,0.0,0.0,42,0.00,,,0.00,,2013-02-22 00:42:00,
2013-02-21 19:51:00,51.0,29.0,30.23,SSW,193,0.0,0.0,43,0.00,,,0.00,,2013-02-22 00:51:00,
2013-02-21 20:01:00,51.0,30.0,30.23,SSW,193,0.0,0.0,45,0.00,,,0.00,,2013-02-22 01:01:00,
2013-02-21 20:11:00,51.0,30.0,30.23,SSW,193,0.0,0.0,45,0.00,,,0.00,,2013-02-22 01:11:00,
2013-02-21 20:21:00,50.0,29.0,30.24,North,353,0.0,0.0,45,0.00,,,0.00,,2013-02-22 01:21:00,
2013-02-21 20:32:00,50.0,28.0,30.24,NNE,32,0.0,1.0,43,0.00,,,0.00,,2013-02-22 01:32:00,
2013-02-21 20:42:00,50.0,28.0,30.24,NNE,32,0.0,1.0,43,0.00,,,0.00,,2013-02-22 01:42:00,
2013-02-21 20:51:00,51.0,31.0,30.24,ENE,76,0.0,0.0,46,0.00,,,0.00,,2013-02-22 01:51:00,
2013-02-21 21:02:00,51.0,31.0,30.25,East,89,0.0,0.0,47,0.00,,,0.00,,2013-02-22 02:02:00,
2013-02-21 21:11:00,49.0,32.0,30.31,West,277,3.0,4.0,52,0.00,,,0.00,,2013-02-22 02:11:00,
2013-02-21 21:21:00,49.0,32.0,30.31,West,277,3.0,4.0,52,0.00,,,0.00,,2013-02-22 02:21:00,
2013-02-21 21:32:00,49.0,34.0,30.31,West,263,0.0,0.0,55,0.00,,,0.00,,2013-02-22 02:32:00,
2013-02-21 21:42:00,46.0,41.0,30.28,North,10,1.0,2.0,83,0.00,,,0.01,,2013-02-22 02:42:00,
2013-02-21 21:52:00,46.0,41.0,30.28,North,10,1.0,2.0,83,0.00,,,0.01,,2013-02-22 02:52:00,
2013-02-21 22:01:00,45.0,42.0,30.28,North,8,1.0,2.0,89,0.00,,,0.01,,2013-02-22 03:01:00,
2013-02-21 22:11:00,44.0,43.0,30.28,NW,311,1.0,2.0,98,0.00,,,0.03,,2013-02-22 03:11:00,
2013-02-21 22:21:00,44.0,43.0,30.28,NW,311,1.0,2.0,98,0.00,,,0.03,,2013-02-22 03:21:00,
2013-02-21 22:32:00,44.0,44.0,30.29,West,266,2.0,3.0,99,0.00,,,0.03,,2013-02-22 03:32:00,
2013-02-21 22:51:00,44.0,44.0,30.30,West,262,0.0,0.0,99,0.00,,,0.06,,2013-02-22 03:51:00,
2013-02-21 23:02:00,44.0,44.0,30.30,West,263,0.0,0.0,100,0.00,,,0.06,,2013-02-22 04:02:00,
2013-02-21 23:11:00,44.0,44.0,30.35,West,273,1.0,1.0,100,0.00,,,0.08,,2013-02-22 04:11:00,
2013-02-21 23:21:00,44.0,44.0,30.35,West,273,1.0,1.0,100,0.00,,,0.08,,2013-02-22 04:21:00,
2013-02-21 23:32:00,43.0,43.0,30.32,West,273,0.0,0.0,100,0.00,,,0.12,,2013-02-22 04:32:00,
2013-02-21 23:42:00,43.0,43.0,30.33,East,79,2.0,3.0,100,0.00,,,0.15,,2013-02-22 04:42:00,
2013-02-21 23:51:00,43.0,43.0,30.33,East,79,2.0,3.0,100,0.00,,,0.15,,2013-02-22 04:51:00,